Longlac, Canada
Current Conditions -  °F | °C
As of 4:00 PM on Thursday 18 Dec 2014 (Local Time) from CYGQ Reporting Station
Clear Clear  
Wind Chill: 18°   Ceiling: Unl
Heat Index: 18°   Visibility: 15mi
Dew Point:   Wind: 3mph
Humidity: 68%   Direction: 300°WNW
Pressure: 30.25"   Gusts: NA
Location:  49.78°N, 86.54°W
Report Text: CYGQ 182100Z 30003KT 15SM SKC M08/M13 A3025 RMK SLP281
Loading
Personal Weather Stations






























Interactive Weather Map New forecast layout! Learn more

10-Day Weather Forecast

Advertisements
Track Severe Weather on mobile